sensor_id;sensor_type;location;lat;lon;timestamp;P1;durP1;ratioP1;P2;durP2;ratioP2
21448;SDS011;10885;52.830;13.788;2023-04-03T05:25:54;9.73;;;3.63;;
21448;SDS011;10885;52.830;13.788;2023-04-03T05:31:16;9.98;;;2.83;;
21448;SDS011;10885;52.830;13.788;2023-04-03T05:36:37;6.80;;;2.88;;
21448;SDS011;10885;52.830;13.788;2023-04-03T05:42:00;3.75;;;2.83;;
21448;SDS011;10885;52.830;13.788;2023-04-03T05:47:22;5.25;;;2.83;;
21448;SDS011;10885;52.830;13.788;2023-04-03T05:52:44;7.03;;;2.90;;
21448;SDS011;10885;52.830;13.788;2023-04-03T05:58:08;8.15;;;3.38;;
21448;SDS011;10885;52.830;13.788;2023-04-03T06:03:30;6.25;;;3.70;;
21448;SDS011;10885;52.830;13.788;2023-04-03T06:08:51;9.65;;;3.20;;
21448;SDS011;10885;52.830;13.788;2023-04-03T06:14:12;2.30;;;1.90;;
21448;SDS011;10885;52.830;13.788;2023-04-03T06:19:34;2.80;;;1.60;;
21448;SDS011;10885;52.830;13.788;2023-04-03T06:24:55;8.90;;;2.28;;
21448;SDS011;10885;52.830;13.788;2023-04-03T06:30:16;5.25;;;1.88;;
21448;SDS011;10885;52.830;13.788;2023-04-03T06:35:38;9.98;;;1.95;;
21448;SDS011;10885;52.830;13.788;2023-04-03T06:40:59;8.25;;;1.70;;
21448;SDS011;10885;52.830;13.788;2023-04-03T06:46:21;2.85;;;1.63;;
21448;SDS011;10885;52.830;13.788;2023-04-03T06:51:42;2.72;;;1.45;;
21448;SDS011;10885;52.830;13.788;2023-04-03T06:57:03;6.13;;;1.83;;
21448;SDS011;10885;52.830;13.788;2023-04-03T07:02:24;2.53;;;1.38;;
21448;SDS011;10885;52.830;13.788;2023-04-03T07:07:45;5.95;;;1.45;;
21448;SDS011;10885;52.830;13.788;2023-04-03T07:13:06;5.63;;;1.77;;
21448;SDS011;10885;52.830;13.788;2023-04-03T07:18:27;5.68;;;1.58;;
21448;SDS011;10885;52.830;13.788;2023-04-03T07:23:48;6.25;;;1.67;;
21448;SDS011;10885;52.830;13.788;2023-04-03T07:29:14;3.85;;;1.60;;
21448;SDS011;10885;52.830;13.788;2023-04-03T07:34:35;3.05;;;1.52;;
21448;SDS011;10885;52.830;13.788;2023-04-03T07:39:56;3.63;;;1.58;;
21448;SDS011;10885;52.830;13.788;2023-04-03T07:45:19;4.53;;;1.30;;
21448;SDS011;10885;52.830;13.788;2023-04-03T07:50:40;3.90;;;1.10;;
21448;SDS011;10885;52.830;13.788;2023-04-03T07:56:01;4.20;;;1.20;;
21448;SDS011;10885;52.830;13.788;2023-04-03T08:01:23;3.60;;;1.27;;
21448;SDS011;10885;52.830;13.788;2023-04-03T08:06:44;5.57;;;1.80;;
21448;SDS011;10885;52.830;13.788;2023-04-03T08:12:06;1.75;;;1.10;;
21448;SDS011;10885;52.830;13.788;2023-04-03T08:17:27;5.07;;;1.40;;
21448;SDS011;10885;52.830;13.788;2023-04-03T08:28:09;2.55;;;1.38;;
21448;SDS011;10885;52.830;13.788;2023-04-03T08:33:32;4.70;;;1.35;;
21448;SDS011;10885;52.830;13.788;2023-04-03T08:38:54;1.70;;;1.20;;
21448;SDS011;10885;52.830;13.788;2023-04-03T08:49:53;7.07;;;1.48;;
21448;SDS011;10885;52.830;13.788;2023-04-03T09:06:22;8.35;;;1.27;;
21448;SDS011;10885;52.830;13.788;2023-04-03T09:17:45;1.50;;;1.10;;
21448;SDS011;10885;52.830;13.788;2023-04-03T09:23:51;1.80;;;1.30;;
21448;SDS011;10885;52.830;13.788;2023-04-03T09:28:56;5.10;;;1.90;;
21448;SDS011;10885;52.830;13.788;2023-04-03T09:39:52;2.13;;;1.13;;
21448;SDS011;10885;52.830;13.788;2023-04-03T09:45:21;10.35;;;5.20;;
21448;SDS011;10885;52.830;13.788;2023-04-03T09:56:21;13.85;;;2.67;;
21448;SDS011;10885;52.830;13.788;2023-04-03T10:02:50;5.47;;;1.48;;
21448;SDS011;10885;52.830;13.788;2023-04-03T10:07:37;4.43;;;1.40;;
21448;SDS011;10885;52.830;13.788;2023-04-03T10:13:06;2.50;;;1.30;;
21448;SDS011;10885;52.830;13.788;2023-04-03T10:18:53;2.43;;;1.30;;
21448;SDS011;10885;52.830;13.788;2023-04-03T10:24:25;4.25;;;1.75;;
21448;SDS011;10885;52.830;13.788;2023-04-03T10:29:54;3.30;;;1.20;;
21448;SDS011;10885;52.830;13.788;2023-04-03T10:46:56;6.32;;;1.20;;
21448;SDS011;10885;52.830;13.788;2023-04-03T10:58:21;3.83;;;1.20;;
21448;SDS011;10885;52.830;13.788;2023-04-03T11:03:51;4.13;;;1.25;;
21448;SDS011;10885;52.830;13.788;2023-04-03T11:09:35;4.70;;;1.30;;
21448;SDS011;10885;52.830;13.788;2023-04-03T11:15:04;5.10;;;1.40;;
21448;SDS011;10885;52.830;13.788;2023-04-03T11:20:28;3.03;;;1.25;;
21448;SDS011;10885;52.830;13.788;2023-04-03T11:25:54;1.50;;;1.10;;
21448;SDS011;10885;52.830;13.788;2023-04-03T11:36:48;2.47;;;1.17;;
21448;SDS011;10885;52.830;13.788;2023-04-03T11:42:27;3.10;;;1.20;;
21448;SDS011;10885;52.830;13.788;2023-04-03T11:53:53;2.35;;;1.30;;
21448;SDS011;10885;52.830;13.788;2023-04-03T11:59:15;2.42;;;1.23;;
21448;SDS011;10885;52.830;13.788;2023-04-03T12:04:42;2.70;;;1.10;;
21448;SDS011;10885;52.830;13.788;2023-04-03T12:10:41;4.80;;;1.17;;
21448;SDS011;10885;52.830;13.788;2023-04-03T12:16:02;4.90;;;1.60;;
21448;SDS011;10885;52.830;13.788;2023-04-03T12:27:34;9.75;;;1.52;;
21448;SDS011;10885;52.830;13.788;2023-04-03T12:33:11;3.10;;;1.50;;
21448;SDS011;10885;52.830;13.788;2023-04-03T12:38:47;4.53;;;1.40;;
21448;SDS011;10885;52.830;13.788;2023-04-03T12:55:37;6.13;;;1.70;;
21448;SDS011;10885;52.830;13.788;2023-04-03T13:01:02;2.55;;;1.10;;
21448;SDS011;10885;52.830;13.788;2023-04-03T13:11:47;5.50;;;1.83;;
21448;SDS011;10885;52.830;13.788;2023-04-03T13:17:14;2.58;;;1.30;;
21448;SDS011;10885;52.830;13.788;2023-04-03T13:22:38;6.28;;;1.20;;
21448;SDS011;10885;52.830;13.788;2023-04-03T13:28:09;5.43;;;1.30;;
21448;SDS011;10885;52.830;13.788;2023-04-03T13:33:34;3.50;;;1.50;;
21448;SDS011;10885;52.830;13.788;2023-04-03T13:44:46;4.82;;;1.80;;
21448;SDS011;10885;52.830;13.788;2023-04-03T13:55:34;4.82;;;1.55;;
21448;SDS011;10885;52.830;13.788;2023-04-03T14:01:11;5.40;;;1.30;;
21448;SDS011;10885;52.830;13.788;2023-04-03T14:06:39;6.13;;;1.27;;
21448;SDS011;10885;52.830;13.788;2023-04-03T14:12:02;4.00;;;1.20;;
21448;SDS011;10885;52.830;13.788;2023-04-03T14:17:28;4.07;;;1.25;;
21448;SDS011;10885;52.830;13.788;2023-04-03T14:22:50;2.20;;;1.08;;
21448;SDS011;10885;52.830;13.788;2023-04-03T14:28:21;8.13;;;2.22;;
21448;SDS011;10885;52.830;13.788;2023-04-03T14:33:43;3.45;;;1.38;;
21448;SDS011;10885;52.830;13.788;2023-04-03T14:39:06;6.53;;;1.38;;
21448;SDS011;10885;52.830;13.788;2023-04-03T14:44:29;5.05;;;2.25;;
21448;SDS011;10885;52.830;13.788;2023-04-03T14:55:12;4.47;;;1.40;;
21448;SDS011;10885;52.830;13.788;2023-04-03T15:00:36;2.80;;;1.50;;
21448;SDS011;10885;52.830;13.788;2023-04-03T15:05:57;3.30;;;1.15;;
21448;SDS011;10885;52.830;13.788;2023-04-03T15:11:19;2.90;;;1.23;;
21448;SDS011;10885;52.830;13.788;2023-04-03T15:16:40;2.05;;;1.00;;
21448;SDS011;10885;52.830;13.788;2023-04-03T15:22:01;4.43;;;1.60;;
21448;SDS011;10885;52.830;13.788;2023-04-03T15:27:22;2.78;;;1.30;;
21448;SDS011;10885;52.830;13.788;2023-04-03T15:32:42;7.32;;;1.40;;
21448;SDS011;10885;52.830;13.788;2023-04-03T15:38:03;3.25;;;1.35;;
21448;SDS011;10885;52.830;13.788;2023-04-03T15:43:25;4.97;;;1.85;;
21448;SDS011;10885;52.830;13.788;2023-04-03T15:48:45;5.53;;;1.58;;
21448;SDS011;10885;52.830;13.788;2023-04-03T15:54:06;3.55;;;1.45;;
21448;SDS011;10885;52.830;13.788;2023-04-03T15:59:28;3.72;;;1.30;;
21448;SDS011;10885;52.830;13.788;2023-04-03T16:04:50;4.45;;;0.95;;
21448;SDS011;10885;52.830;13.788;2023-04-03T16:10:12;5.22;;;1.50;;
21448;SDS011;10885;52.830;13.788;2023-04-03T16:15:35;7.38;;;1.40;;
21448;SDS011;10885;52.830;13.788;2023-04-03T16:20:56;3.00;;;1.20;;
21448;SDS011;10885;52.830;13.788;2023-04-03T16:26:17;3.90;;;1.38;;
21448;SDS011;10885;52.830;13.788;2023-04-03T16:31:38;9.38;;;3.00;;
21448;SDS011;10885;52.830;13.788;2023-04-03T16:36:59;4.32;;;1.45;;
21448;SDS011;10885;52.830;13.788;2023-04-03T16:42:21;3.17;;;1.48;;
21448;SDS011;10885;52.830;13.788;2023-04-03T16:47:42;7.80;;;1.63;;
21448;SDS011;10885;52.830;13.788;2023-04-03T16:53:03;3.75;;;1.95;;
21448;SDS011;10885;52.830;13.788;2023-04-03T16:58:25;1.88;;;1.20;;
21448;SDS011;10885;52.830;13.788;2023-04-03T17:03:46;6.93;;;1.60;;
21448;SDS011;10885;52.830;13.788;2023-04-03T17:09:08;5.50;;;1.65;;
21448;SDS011;10885;52.830;13.788;2023-04-03T17:14:29;5.38;;;1.90;;
21448;SDS011;10885;52.830;13.788;2023-04-03T17:19:51;6.93;;;1.92;;
21448;SDS011;10885;52.830;13.788;2023-04-03T17:25:14;3.67;;;1.50;;
21448;SDS011;10885;52.830;13.788;2023-04-03T17:35:56;4.25;;;1.98;;
21448;SDS011;10885;52.830;13.788;2023-04-03T17:41:18;3.08;;;1.63;;
21448;SDS011;10885;52.830;13.788;2023-04-03T17:46:40;3.90;;;1.50;;
21448;SDS011;10885;52.830;13.788;2023-04-03T17:52:01;3.75;;;1.48;;
21448;SDS011;10885;52.830;13.788;2023-04-03T17:57:22;9.25;;;1.92;;
21448;SDS011;10885;52.830;13.788;2023-04-03T18:02:43;4.82;;;2.25;;
21448;SDS011;10885;52.830;13.788;2023-04-03T18:08:03;3.60;;;1.63;;
21448;SDS011;10885;52.830;13.788;2023-04-03T18:13:24;4.68;;;2.40;;
21448;SDS011;10885;52.830;13.788;2023-04-03T18:18:46;5.10;;;1.85;;
21448;SDS011;10885;52.830;13.788;2023-04-03T18:24:12;2.75;;;1.55;;
21448;SDS011;10885;52.830;13.788;2023-04-03T18:29:35;3.25;;;1.75;;
21448;SDS011;10885;52.830;13.788;2023-04-03T18:34:58;3.53;;;1.77;;
21448;SDS011;10885;52.830;13.788;2023-04-03T18:40:20;5.38;;;1.83;;
21448;SDS011;10885;52.830;13.788;2023-04-03T18:45:41;5.13;;;1.90;;
21448;SDS011;10885;52.830;13.788;2023-04-03T18:51:02;5.20;;;1.70;;
21448;SDS011;10885;52.830;13.788;2023-04-03T18:56:23;6.13;;;2.55;;
21448;SDS011;10885;52.830;13.788;2023-04-03T19:01:44;1.60;;;1.25;;
21448;SDS011;10885;52.830;13.788;2023-04-03T19:07:06;3.90;;;1.60;;
21448;SDS011;10885;52.830;13.788;2023-04-03T19:12:28;4.32;;;1.90;;
21448;SDS011;10885;52.830;13.788;2023-04-03T19:17:49;3.50;;;1.65;;
21448;SDS011;10885;52.830;13.788;2023-04-03T19:23:11;7.13;;;4.13;;
21448;SDS011;10885;52.830;13.788;2023-04-03T19:28:33;2.92;;;1.80;;
21448;SDS011;10885;52.830;13.788;2023-04-03T19:33:54;5.32;;;2.28;;
21448;SDS011;10885;52.830;13.788;2023-04-03T19:39:15;3.70;;;1.77;;
21448;SDS011;10885;52.830;13.788;2023-04-03T19:44:36;2.42;;;1.48;;
21448;SDS011;10885;52.830;13.788;2023-04-03T19:49:57;4.50;;;1.98;;
21448;SDS011;10885;52.830;13.788;2023-04-03T19:55:18;6.78;;;2.15;;
21448;SDS011;10885;52.830;13.788;2023-04-03T20:00:40;8.23;;;1.95;;
21448;SDS011;10885;52.830;13.788;2023-04-03T20:06:01;7.47;;;2.08;;
21448;SDS011;10885;52.830;13.788;2023-04-03T20:11:23;4.72;;;1.95;;
21448;SDS011;10885;52.830;13.788;2023-04-03T20:16:44;5.40;;;2.10;;
21448;SDS011;10885;52.830;13.788;2023-04-03T20:22:06;9.43;;;2.22;;
21448;SDS011;10885;52.830;13.788;2023-04-03T20:27:27;7.90;;;2.10;;
21448;SDS011;10885;52.830;13.788;2023-04-03T20:32:48;2.42;;;1.63;;
21448;SDS011;10885;52.830;13.788;2023-04-03T20:38:09;4.22;;;2.00;;
21448;SDS011;10885;52.830;13.788;2023-04-03T20:43:32;7.88;;;2.00;;
21448;SDS011;10885;52.830;13.788;2023-04-03T20:48:53;7.47;;;2.20;;
21448;SDS011;10885;52.830;13.788;2023-04-03T20:54:14;7.38;;;2.25;;
21448;SDS011;10885;52.830;13.788;2023-04-03T21:04:58;4.10;;;1.92;;
21448;SDS011;10885;52.830;13.788;2023-04-03T21:21:42;6.88;;;2.67;;
21448;SDS011;10885;52.830;13.788;2023-04-03T21:27:05;6.18;;;2.58;;
21448;SDS011;10885;52.830;13.788;2023-04-03T21:32:26;11.18;;;3.33;;
21448;SDS011;10885;52.830;13.788;2023-04-03T21:37:47;5.97;;;2.70;;
21448;SDS011;10885;52.830;13.788;2023-04-03T22:24:48;13.18;;;3.53;;
21448;SDS011;10885;52.830;13.788;2023-04-03T22:30:10;7.65;;;3.47;;
21448;SDS011;10885;52.830;13.788;2023-04-03T22:35:31;8.32;;;3.45;;
21448;SDS011;10885;52.830;13.788;2023-04-03T22:40:58;5.80;;;2.88;;
21448;SDS011;10885;52.830;13.788;2023-04-03T22:46:20;11.57;;;3.38;;
21448;SDS011;10885;52.830;13.788;2023-04-03T22:51:41;9.27;;;3.50;;
21448;SDS011;10885;52.830;13.788;2023-04-03T22:57:02;17.85;;;4.15;;
21448;SDS011;10885;52.830;13.788;2023-04-03T23:02:23;6.00;;;2.60;;
21448;SDS011;10885;52.830;13.788;2023-04-03T23:07:44;5.10;;;2.53;;
21448;SDS011;10885;52.830;13.788;2023-04-03T23:13:05;6.15;;;2.63;;
21448;SDS011;10885;52.830;13.788;2023-04-03T23:18:26;7.18;;;2.53;;
21448;SDS011;10885;52.830;13.788;2023-04-03T23:23:51;8.10;;;2.58;;
21448;SDS011;10885;52.830;13.788;2023-04-03T23:29:12;6.07;;;2.85;;
21448;SDS011;10885;52.830;13.788;2023-04-03T23:34:33;3.97;;;2.45;;
